Zaporizhzhia, Ukraine
Current Conditions -  °F | °C
As of 8:00 AM on Thursday 23 Oct 2014 (Local Time) from UKDE Reporting Station
Haze Haze  
Wind Chill: 41°   Ceiling: 600
Heat Index: 46°   Visibility: 3mi
Dew Point: 43°   Wind: 11mph
Humidity: 87%   Direction: 50°NE
Pressure: 29.91"   Gusts: NA
Location:  47.85°N, 35.16°E
Report Text: UKDE 230500Z 05005MPS 340V090 5000 BR OVC006 08/06 Q1013 02CLRD70 NOSIG
Loading
Personal Weather Stations






























Interactive Weather Map
Tropical Storm Tracking
New forecast layout! Learn more

10-Day Weather Forecast

Advertisements
Track Severe Weather on mobile